createdAt,value
2017-07-06T08:13:27.984Z,16.30
2017-07-06T08:16:11.420Z,6.40
2017-07-06T08:18:42.589Z,18.77
2017-07-06T08:21:12.489Z,8.60
2017-07-06T08:23:55.396Z,7.63
2017-07-06T08:26:41.121Z,10.20
2017-07-06T08:29:28.349Z,6.90
2017-07-06T08:32:14.483Z,19.00
2017-07-06T08:34:57.634Z,12.07
2017-07-06T08:37:43.592Z,24.83
2017-07-06T08:40:28.811Z,18.30
2017-07-06T08:43:09.237Z,18.53
2017-07-06T08:45:54.040Z,25.07
2017-07-06T08:48:39.520Z,20.70
2017-07-06T08:51:27.247Z,26.30
2017-07-06T08:54:12.090Z,62.17
2017-07-06T08:56:57.288Z,31.63
2017-07-06T08:59:43.204Z,24.77
2017-07-06T09:02:29.099Z,23.37
2017-07-06T09:05:15.287Z,19.67
2017-07-06T09:08:03.157Z,14.33
2017-07-06T09:10:49.665Z,19.57
2017-07-06T09:13:38.057Z,18.90
2017-07-06T09:16:25.019Z,15.57
2017-07-06T09:19:07.391Z,15.50
2017-07-06T09:21:52.765Z,18.37
2017-07-06T09:24:37.123Z,16.47
2017-07-06T09:27:24.122Z,13.97
2017-07-06T09:30:05.508Z,20.80
2017-07-06T09:32:49.719Z,17.50
2017-07-06T09:35:34.413Z,10.60
2017-07-06T09:38:18.103Z,16.70
2017-07-06T09:41:05.141Z,10.53
2017-07-06T09:43:50.455Z,8.47
2017-07-06T09:46:38.522Z,14.43
2017-07-06T09:49:22.537Z,20.60
2017-07-06T09:52:07.388Z,15.97
2017-07-06T09:54:51.866Z,19.03
2017-07-06T09:57:35.703Z,15.80
2017-07-06T10:00:11.255Z,9.20
2017-07-06T10:02:54.385Z,9.67
2017-07-06T10:05:40.350Z,8.27
2017-07-06T10:08:27.038Z,8.23
2017-07-06T10:11:12.021Z,9.83
2017-07-06T10:13:59.261Z,7.97
2017-07-06T10:16:44.031Z,8.00
2017-07-06T10:19:28.635Z,7.20
2017-07-06T10:22:13.484Z,6.97
2017-07-06T10:25:00.331Z,11.80
2017-07-06T10:27:47.042Z,8.07
2017-07-06T10:30:33.381Z,13.53
2017-07-06T10:33:19.891Z,6.70
2017-07-06T10:36:07.177Z,13.77
2017-07-06T10:38:51.682Z,7.70
2017-07-06T10:41:33.956Z,10.63
2017-07-06T10:44:19.114Z,5.43
2017-07-06T10:47:05.709Z,12.13
2017-07-06T10:49:51.842Z,13.43
2017-07-06T10:52:34.541Z,6.57
2017-07-06T10:55:18.494Z,16.00
2017-07-06T10:57:56.150Z,7.30
2017-07-06T11:00:42.462Z,7.57
2017-07-06T11:03:28.905Z,14.90
2017-07-06T11:06:13.286Z,7.30
2017-07-06T11:08:57.647Z,7.97
2017-07-06T11:11:43.784Z,6.67
2017-07-06T11:14:30.914Z,8.03
2017-07-06T11:17:12.602Z,9.40
2017-07-06T11:19:57.680Z,7.57
2017-07-06T11:22:44.376Z,6.93
2017-07-06T11:25:30.873Z,5.10
2017-07-06T11:28:15.433Z,8.30
2017-07-06T11:31:02.168Z,5.50
2017-07-06T11:33:49.583Z,6.70
2017-07-06T11:36:32.859Z,5.80
2017-07-06T11:39:17.653Z,3.57
2017-07-06T11:42:04.950Z,6.70
2017-07-06T11:44:52.953Z,7.60
2017-07-06T11:47:40.405Z,7.87
2017-07-06T11:50:26.609Z,6.20
2017-07-06T11:53:11.140Z,12.20
2017-07-06T11:55:54.697Z,14.47
2017-07-06T11:58:25.596Z,8.57
2017-07-06T12:00:57.805Z,9.00
2017-07-06T12:03:29.820Z,7.80
2017-07-06T12:05:59.470Z,11.30
2017-07-06T12:08:29.465Z,6.67
2017-07-06T12:11:17.500Z,9.40
2017-07-06T12:14:03.873Z,14.07
2017-07-06T12:16:39.331Z,12.40
2017-07-06T12:19:24.640Z,11.83
2017-07-06T12:22:13.349Z,30.87
2017-07-06T12:24:58.438Z,21.60
2017-07-06T12:27:45.238Z,57.10
2017-07-06T12:30:35.724Z,79.90
2017-07-06T12:33:20.924Z,81.00
2017-07-06T12:35:52.058Z,75.80
2017-07-06T12:38:38.485Z,79.90
2017-07-06T12:41:20.457Z,71.20
2017-07-06T12:44:03.108Z,66.93
2017-07-06T12:46:49.591Z,68.90
2017-07-06T12:49:36.564Z,67.63
2017-07-06T12:52:18.711Z,66.37
2017-07-06T12:55:06.423Z,69.40
2017-07-06T12:57:54.056Z,56.83
2017-07-06T13:00:40.173Z,52.90
2017-07-06T13:03:10.240Z,68.30
2017-07-06T13:05:57.926Z,59.23
2017-07-06T13:08:45.020Z,55.47
2017-07-06T13:11:15.449Z,50.90
2017-07-06T13:13:45.438Z,55.67
2017-07-06T13:16:29.988Z,60.80
2017-07-06T13:19:02.000Z,42.77
2017-07-06T13:21:48.620Z,42.13
2017-07-06T13:24:18.364Z,41.77
2017-07-06T13:26:48.857Z,41.10
2017-07-06T13:29:18.507Z,40.10
2017-07-06T13:32:04.492Z,43.07
2017-07-06T13:34:34.375Z,40.00
2017-07-06T13:37:19.964Z,49.40
2017-07-06T13:40:02.764Z,37.17
2017-07-06T13:42:32.594Z,45.77
2017-07-06T13:45:15.167Z,37.25
2017-07-06T13:48:03.415Z,25.00
2017-07-06T13:50:49.885Z,9.53
2017-07-06T13:53:36.309Z,11.17
2017-07-06T13:56:07.113Z,11.67
2017-07-06T13:58:47.796Z,7.50
2017-07-06T14:01:34.225Z,4.77
2017-07-06T14:04:21.400Z,5.73
2017-07-06T14:07:06.693Z,6.10
2017-07-06T14:09:53.651Z,8.97
2017-07-06T14:12:23.923Z,7.23
2017-07-06T14:15:06.562Z,7.47
2017-07-06T14:17:53.325Z,16.90
2017-07-06T14:20:40.895Z,6.33
2017-07-06T14:23:24.252Z,171.40
2017-07-06T14:26:07.801Z,120.17
2017-07-06T14:28:49.155Z,784.20
2017-07-06T14:31:31.797Z,571.67
2017-07-06T14:34:01.471Z,446.33
2017-07-06T14:36:48.375Z,479.17
2017-07-06T14:39:30.482Z,456.17
2017-07-06T14:42:16.079Z,490.20
2017-07-06T14:45:00.399Z,511.23
2017-07-06T14:47:45.822Z,526.00
2017-07-06T14:50:30.760Z,639.30
2017-07-06T14:53:18.110Z,599.73
2017-07-06T14:56:04.194Z,684.27
2017-07-06T14:58:43.546Z,650.10
2017-07-06T15:01:28.274Z,690.43
2017-07-06T15:04:14.034Z,641.23
2017-07-06T15:07:00.266Z,614.80
2017-07-06T15:09:43.194Z,583.30
2017-07-06T15:12:31.102Z,594.00
2017-07-06T15:15:19.650Z,588.80
2017-07-06T15:18:05.970Z,568.13
2017-07-06T15:20:51.465Z,568.93
2017-07-06T15:23:37.117Z,536.83
2017-07-06T15:26:07.298Z,12.57
2017-07-06T15:28:41.779Z,5.47
2017-07-06T15:31:11.886Z,9.30
2017-07-06T15:33:41.466Z,62.03
2017-07-06T15:36:26.220Z,77.27
2017-07-06T15:38:56.115Z,75.57
2017-07-06T15:41:25.997Z,65.80
2017-07-06T15:43:56.033Z,71.13
2017-07-06T15:46:25.681Z,63.73
2017-07-06T15:49:09.749Z,71.23
2017-07-06T15:51:39.363Z,51.63
2017-07-06T15:54:09.027Z,52.90
2017-07-06T15:56:56.630Z,55.97
2017-07-06T15:59:26.570Z,59.10
2017-07-06T16:01:57.520Z,66.60
2017-07-06T16:04:27.943Z,62.50
2017-07-06T16:07:17.474Z,46.07
2017-07-06T16:10:05.750Z,50.70
2017-07-06T16:12:50.201Z,55.13
2017-07-06T16:15:35.019Z,58.90
2017-07-06T16:18:05.001Z,50.43
2017-07-06T16:20:35.367Z,46.88
2017-07-06T16:23:04.976Z,54.80
2017-07-06T16:25:35.207Z,40.30
2017-07-06T16:28:05.114Z,41.30
2017-07-06T16:30:53.441Z,51.63
2017-07-06T16:33:35.822Z,41.50
2017-07-06T16:36:24.652Z,41.43
2017-07-06T16:39:11.365Z,33.63
2017-07-06T16:41:58.750Z,43.97
2017-07-06T16:44:45.522Z,32.93
2017-07-06T16:47:32.325Z,39.80
2017-07-06T16:50:18.348Z,36.80
2017-07-06T16:53:04.759Z,34.30
2017-07-06T16:55:50.407Z,50.60
2017-07-06T16:58:36.382Z,33.40
2017-07-06T17:01:18.558Z,33.27
2017-07-06T17:04:05.482Z,32.07
2017-07-06T17:06:50.749Z,36.97
2017-07-06T17:09:34.514Z,33.63
2017-07-06T17:12:20.952Z,30.27
2017-07-06T17:15:10.450Z,34.53
2017-07-06T17:17:54.444Z,28.83
2017-07-06T17:20:41.664Z,30.70
2017-07-06T17:23:23.487Z,34.30
2017-07-06T17:26:10.240Z,25.73
2017-07-06T17:28:54.923Z,20.37
2017-07-06T17:31:28.198Z,26.83
2017-07-06T17:33:58.757Z,39.90
2017-07-06T17:36:30.581Z,44.37
2017-07-06T17:39:02.519Z,30.53
2017-07-06T17:41:47.744Z,35.13
2017-07-06T17:44:33.546Z,25.20
2017-07-06T17:47:21.842Z,30.00
2017-07-06T17:50:03.746Z,27.73
2017-07-06T17:52:33.948Z,37.20
2017-07-06T17:55:03.598Z,24.93
2017-07-06T17:57:33.968Z,20.43
2017-07-06T18:00:04.186Z,30.23
2017-07-06T18:02:33.833Z,26.83
2017-07-06T18:05:15.382Z,25.07
2017-07-06T18:07:58.492Z,20.43
2017-07-06T18:10:41.450Z,22.20
2017-07-06T18:13:12.652Z,23.70
2017-07-06T18:16:01.054Z,21.60
2017-07-06T18:18:47.008Z,21.87
2017-07-06T18:21:33.695Z,21.33
2017-07-06T18:24:11.998Z,21.07
2017-07-06T18:26:57.785Z,20.97
2017-07-06T18:29:44.111Z,19.43
2017-07-06T18:32:27.631Z,16.43
2017-07-06T18:35:13.674Z,21.00
2017-07-06T18:38:00.467Z,18.30
2017-07-06T18:40:46.336Z,14.97
2017-07-06T18:43:33.738Z,16.90
2017-07-06T18:46:03.707Z,19.00
2017-07-06T18:48:52.253Z,18.57
2017-07-06T18:51:37.905Z,14.67
2017-07-06T18:54:26.420Z,13.83
2017-07-06T18:57:11.850Z,16.80
2017-07-06T18:59:55.643Z,21.37
2017-07-06T19:02:41.549Z,17.73
2017-07-06T19:05:27.636Z,24.57
2017-07-06T19:07:58.810Z,11.70
2017-07-06T19:10:45.689Z,16.30
2017-07-06T19:13:30.797Z,17.07
2017-07-06T19:16:17.787Z,16.50
2017-07-06T19:18:57.804Z,12.40
2017-07-06T19:21:44.088Z,11.07
2017-07-06T19:24:30.866Z,16.47
2017-07-06T19:27:14.977Z,14.73
2017-07-06T19:29:57.180Z,12.13
2017-07-06T19:32:38.987Z,9.40
2017-07-06T19:35:24.906Z,15.20
2017-07-06T19:38:11.060Z,11.97
2017-07-06T19:40:51.098Z,7.83
2017-07-06T19:43:37.693Z,8.37
2017-07-06T19:46:24.083Z,14.60
2017-07-06T19:49:09.865Z,13.90
2017-07-06T19:51:53.933Z,9.93
2017-07-06T19:54:35.610Z,6.77
2017-07-06T19:57:14.712Z,16.30
2017-07-06T20:00:00.020Z,8.30
2017-07-06T20:02:29.689Z,10.47
2017-07-06T20:05:16.845Z,12.33
2017-07-06T20:08:01.982Z,8.73
2017-07-06T20:10:46.203Z,8.33
2017-07-06T20:13:26.751Z,7.57
2017-07-06T20:16:16.517Z,11.03
2017-07-06T20:19:02.262Z,9.00
2017-07-06T20:21:46.105Z,12.07
2017-07-06T20:24:16.501Z,7.73
2017-07-06T20:27:09.814Z,11.07
2017-07-06T20:29:56.777Z,10.43
2017-07-06T20:32:43.810Z,9.37
2017-07-06T20:35:29.070Z,8.03
2017-07-06T20:38:15.580Z,18.93
2017-07-06T20:40:59.765Z,10.60
2017-07-06T20:43:45.734Z,9.20
2017-07-06T20:46:31.669Z,11.47
2017-07-06T20:49:15.210Z,10.43
2017-07-06T20:52:00.617Z,10.13
2017-07-06T20:54:47.658Z,8.43
2017-07-06T20:57:34.854Z,7.43
2017-07-06T21:00:17.826Z,14.50
2017-07-06T21:03:02.703Z,9.90
2017-07-06T21:05:44.147Z,5.97
2017-07-06T21:08:24.066Z,13.90
2017-07-06T21:11:09.696Z,5.73
